createdAt,value
2023-05-10T00:09:12.760Z,20.73
2023-05-10T00:19:15.421Z,19.02
2023-05-10T00:29:20.505Z,27.23
2023-05-10T00:39:23.134Z,22.42
2023-05-10T00:49:27.427Z,25.48
2023-05-10T00:59:30.773Z,14.82
2023-05-10T01:09:35.486Z,16.17
2023-05-10T01:19:39.245Z,16.02
2023-05-10T01:30:21.855Z,15.20
2023-05-10T01:40:31.895Z,15.88
2023-05-10T01:50:36.200Z,16.95
2023-05-10T02:00:44.579Z,15.20
2023-05-10T02:10:48.474Z,20.90
2023-05-10T02:20:55.085Z,21.48
2023-05-10T02:30:58.693Z,16.55
2023-05-10T02:41:03.946Z,13.35
2023-05-10T02:51:09.070Z,9.32
2023-05-10T03:01:13.206Z,11.73
2023-05-10T03:11:30.220Z,11.18
2023-05-10T03:21:34.818Z,15.40
2023-05-10T03:31:37.723Z,14.25
2023-05-10T03:41:42.443Z,14.48
2023-05-10T03:51:45.109Z,22.80
2023-05-10T04:01:49.155Z,15.10
2023-05-10T04:11:52.138Z,18.33
2023-05-10T04:21:56.159Z,17.08
2023-05-10T04:31:58.868Z,15.82
2023-05-10T04:42:03.688Z,15.90
2023-05-10T04:52:06.578Z,17.92
2023-05-10T05:02:10.644Z,14.45
2023-05-10T05:12:15.091Z,15.07
2023-05-10T05:22:20.467Z,16.20
2023-05-10T05:32:24.726Z,15.73
2023-05-10T05:42:29.108Z,17.25
2023-05-10T05:52:32.550Z,12.85
2023-05-10T06:02:36.744Z,17.92
2023-05-10T06:12:39.569Z,15.15
2023-05-10T06:22:43.847Z,12.23
2023-05-10T06:32:47.154Z,10.90
2023-05-10T06:42:51.316Z,10.50
2023-05-10T06:52:54.038Z,9.80
2023-05-10T07:02:58.159Z,8.60
2023-05-10T07:13:01.364Z,9.10
2023-05-10T07:23:05.445Z,7.63
2023-05-10T07:33:08.406Z,5.25
2023-05-10T07:43:12.461Z,4.82
2023-05-10T07:53:15.153Z,4.35
2023-05-10T08:03:19.374Z,3.03
2023-05-10T08:13:22.947Z,2.58
2023-05-10T08:23:26.970Z,1.27
2023-05-10T08:33:29.640Z,1.70
2023-05-10T08:43:34.023Z,1.00
2023-05-10T08:53:39.448Z,0.80
2023-05-10T09:03:43.666Z,1.52
2023-05-10T09:13:47.173Z,1.15
2023-05-10T09:23:51.912Z,1.60
2023-05-10T09:33:55.320Z,0.75
2023-05-10T09:43:59.318Z,2.50
2023-05-10T09:54:12.948Z,7.88
2023-05-10T10:04:17.095Z,11.38
2023-05-10T10:14:20.559Z,14.55
2023-05-10T10:24:24.569Z,13.40
2023-05-10T10:34:29.858Z,10.57
2023-05-10T10:44:39.473Z,12.25
2023-05-10T10:54:42.834Z,8.67
2023-05-10T11:04:47.762Z,9.25
2023-05-10T11:14:52.255Z,4.93
2023-05-10T11:25:03.539Z,6.18
2023-05-10T11:35:09.576Z,6.22
2023-05-10T11:45:13.841Z,6.00
2023-05-10T11:55:16.530Z,4.97
2023-05-10T12:05:20.785Z,6.20
2023-05-10T12:15:25.253Z,5.38
2023-05-10T12:25:33.925Z,5.47
2023-05-10T12:35:46.623Z,5.07
2023-05-10T12:45:50.746Z,4.65
2023-05-10T12:55:54.240Z,5.60
2023-05-10T13:05:58.268Z,4.70
2023-05-10T13:16:00.893Z,4.68
2023-05-10T13:26:04.878Z,4.97
2023-05-10T13:36:08.388Z,3.00
2023-05-10T13:46:12.808Z,2.70
2023-05-10T13:56:15.562Z,2.10
2023-05-10T14:06:19.599Z,2.83
2023-05-10T14:16:22.912Z,5.53
2023-05-10T14:26:27.257Z,5.53
2023-05-10T14:36:30.073Z,6.80
2023-05-10T14:46:35.445Z,6.15
2023-05-10T14:56:39.282Z,10.40
2023-05-10T15:06:43.240Z,9.80
2023-05-10T15:16:45.891Z,9.82
2023-05-10T15:26:50.006Z,5.88
2023-05-10T15:36:52.587Z,6.22
2023-05-10T15:46:56.754Z,8.57
2023-05-10T15:57:00.033Z,6.78
2023-05-10T16:07:04.119Z,10.13
2023-05-10T16:17:07.808Z,9.05
2023-05-10T16:27:13.231Z,6.05
2023-05-10T16:37:16.035Z,6.63
2023-05-10T16:47:20.159Z,6.80
2023-05-10T16:57:23.181Z,6.10
2023-05-10T17:07:29.305Z,6.95
2023-05-10T17:17:33.308Z,7.10
2023-05-10T17:27:37.574Z,7.68
2023-05-10T17:37:41.634Z,5.57
2023-05-10T17:47:45.652Z,6.05
2023-05-10T17:57:51.163Z,5.63
2023-05-10T18:07:56.391Z,4.57
2023-05-10T18:17:59.488Z,9.00
2023-05-10T18:28:03.521Z,4.70
2023-05-10T18:38:06.183Z,8.93
2023-05-10T18:48:10.558Z,5.55
2023-05-10T18:58:13.297Z,8.10
2023-05-10T19:08:17.621Z,11.27
2023-05-10T19:18:20.345Z,7.32
2023-05-10T19:28:24.629Z,9.88
2023-05-10T19:38:27.394Z,8.00
2023-05-10T19:48:32.172Z,9.73
2023-05-10T19:58:35.617Z,14.95
2023-05-10T20:08:39.727Z,15.93
2023-05-10T20:18:42.381Z,14.95
2023-05-10T20:28:46.387Z,14.52
2023-05-10T20:38:49.282Z,16.45
2023-05-10T20:48:53.545Z,13.20
2023-05-10T20:58:56.269Z,17.05
2023-05-10T21:09:00.628Z,13.90
2023-05-10T21:19:03.688Z,12.32
2023-05-10T21:29:07.688Z,11.43
2023-05-10T21:39:10.355Z,12.93
2023-05-10T21:49:14.453Z,11.23
2023-05-10T21:59:17.939Z,12.20
2023-05-10T22:09:24.225Z,10.80
2023-05-10T22:19:26.938Z,14.57
2023-05-10T22:29:31.216Z,12.15
2023-05-10T22:39:34.599Z,13.50
2023-05-10T22:49:38.755Z,15.13
2023-05-10T22:59:42.338Z,19.02
2023-05-10T23:09:46.705Z,28.30
2023-05-10T23:19:49.459Z,25.60
2023-05-10T23:29:55.546Z,27.75
2023-05-10T23:39:58.488Z,24.17
2023-05-10T23:50:02.732Z,20.60
